createdAt,value
2016-12-09T00:00:19.471Z,2.4
2016-12-09T00:00:40.009Z,2.6
2016-12-09T00:01:00.581Z,2.6
2016-12-09T00:01:21.119Z,2.7
2016-12-09T00:01:41.646Z,2.6
2016-12-09T00:02:02.203Z,2.7
2016-12-09T00:02:22.728Z,2.6
2016-12-09T00:02:43.326Z,2.6
2016-12-09T00:03:03.864Z,2.6
2016-12-09T00:03:24.394Z,2.6
2016-12-09T00:03:44.945Z,2.6
2016-12-09T00:04:05.486Z,2.5
2016-12-09T00:04:26.036Z,2.4
2016-12-09T00:04:46.601Z,2.4
2016-12-09T00:05:07.166Z,2.4
2016-12-09T00:05:27.715Z,2.4
2016-12-09T00:05:48.248Z,2.4
2016-12-09T00:06:08.803Z,2.3
2016-12-09T00:06:29.339Z,2.3
2016-12-09T00:06:49.853Z,2.2
2016-12-09T00:07:10.388Z,2.4
2016-12-09T00:07:30.938Z,2.4
2016-12-09T00:07:51.510Z,2.3
2016-12-09T00:08:12.077Z,2.3
2016-12-09T00:08:32.658Z,2.4
2016-12-09T00:08:53.197Z,2.3
2016-12-09T00:09:13.726Z,2.3
2016-12-09T00:09:34.274Z,2.3
2016-12-09T00:09:54.817Z,2.2
2016-12-09T00:10:15.386Z,2.3
2016-12-09T00:10:35.907Z,2.2
2016-12-09T00:10:56.457Z,2.2
2016-12-09T00:11:17.009Z,2.2
2016-12-09T00:11:37.567Z,2.3
2016-12-09T00:11:58.102Z,2.2
2016-12-09T00:12:18.684Z,2.2
2016-12-09T00:12:39.205Z,2.2
2016-12-09T00:12:59.734Z,2.2
2016-12-09T00:13:20.310Z,2.1
2016-12-09T00:13:40.857Z,2.1
2016-12-09T00:14:01.436Z,2.2
2016-12-09T00:14:21.969Z,2.1
2016-12-09T00:14:42.502Z,2.1
2016-12-09T00:15:03.033Z,2.2
2016-12-09T00:15:23.579Z,2.1
2016-12-09T00:15:44.114Z,2.1
2016-12-09T00:16:04.657Z,2.2
2016-12-09T00:16:25.196Z,2.2
2016-12-09T00:16:45.778Z,2.2
2016-12-09T00:17:06.321Z,2.2
2016-12-09T00:17:26.893Z,2.2
2016-12-09T00:17:47.422Z,2.3
2016-12-09T00:18:07.952Z,2.2
2016-12-09T00:18:28.505Z,2.2
2016-12-09T00:18:49.027Z,2.2
2016-12-09T00:19:09.565Z,2.2
2016-12-09T00:19:30.116Z,2.1
2016-12-09T00:19:50.656Z,2.2
2016-12-09T00:20:11.216Z,2.2
2016-12-09T00:20:31.745Z,2.2
2016-12-09T00:20:52.284Z,2.2
2016-12-09T00:21:12.811Z,2.1
2016-12-09T00:21:33.344Z,2.1
2016-12-09T00:21:53.948Z,2.2
2016-12-09T00:22:14.495Z,2.1
2016-12-09T00:22:35.048Z,2.2
2016-12-09T00:22:55.589Z,2.2
2016-12-09T00:23:16.122Z,2.2
2016-12-09T00:23:36.724Z,2.2
2016-12-09T00:23:57.312Z,2.2
2016-12-09T00:24:17.878Z,2.2
2016-12-09T00:24:38.462Z,2.1
2016-12-09T00:24:59.021Z,2.2
2016-12-09T00:25:19.559Z,2.1
2016-12-09T00:25:40.134Z,2.1
2016-12-09T00:26:00.717Z,2
2016-12-09T00:26:21.244Z,2
2016-12-09T00:26:41.784Z,2.2
2016-12-09T00:27:02.325Z,2.1
2016-12-09T00:27:22.906Z,2.1
2016-12-09T00:27:43.469Z,2.1
2016-12-09T00:28:04.031Z,2.1
2016-12-09T00:28:24.616Z,2.2
2016-12-09T00:28:45.184Z,2.1
2016-12-09T00:29:05.714Z,2.2
2016-12-09T00:29:26.319Z,2.2
2016-12-09T00:29:46.852Z,2.1
2016-12-09T00:30:07.395Z,2.2
2016-12-09T00:30:27.918Z,2.2
2016-12-09T00:30:48.463Z,2.2
2016-12-09T00:31:09.019Z,2.2
2016-12-09T00:31:29.582Z,2.2
2016-12-09T00:31:50.162Z,2.2
2016-12-09T00:32:10.698Z,2.2
2016-12-09T00:32:31.274Z,2.2
2016-12-09T00:32:51.811Z,2.1
2016-12-09T00:33:12.367Z,2.1
2016-12-09T00:33:32.919Z,2.1
2016-12-09T00:33:53.457Z,2
2016-12-09T00:34:13.988Z,2
2016-12-09T00:34:34.539Z,2
2016-12-09T00:34:55.092Z,2.1
2016-12-09T00:35:15.640Z,2
2016-12-09T00:35:36.200Z,1.8
2016-12-09T00:35:56.742Z,1.9
2016-12-09T00:36:17.291Z,1.9
2016-12-09T00:36:37.816Z,1.9
2016-12-09T00:36:58.373Z,1.8
2016-12-09T00:37:18.915Z,1.8
2016-12-09T00:37:39.463Z,1.8
2016-12-09T00:37:59.992Z,1.7
2016-12-09T00:38:20.521Z,1.8
2016-12-09T00:38:41.074Z,1.6
2016-12-09T00:39:01.585Z,1.6
2016-12-09T00:39:22.133Z,1.7
2016-12-09T00:39:42.651Z,1.6
2016-12-09T00:40:03.169Z,1.6
2016-12-09T00:40:23.706Z,1.5
2016-12-09T00:40:44.237Z,1.6
2016-12-09T00:41:04.758Z,1.6
2016-12-09T00:41:25.290Z,1.6
2016-12-09T00:41:45.826Z,1.5
2016-12-09T00:42:06.364Z,1.5
2016-12-09T00:42:26.879Z,1.5
2016-12-09T00:42:47.430Z,1.5
2016-12-09T00:43:07.994Z,1.5
2016-12-09T00:43:28.529Z,1.4
2016-12-09T00:43:49.095Z,1.5
2016-12-09T00:44:09.643Z,1.5
2016-12-09T00:44:30.186Z,1.4
2016-12-09T00:44:50.733Z,1.5
2016-12-09T00:45:11.257Z,1.5
2016-12-09T00:45:31.813Z,1.5
2016-12-09T00:45:52.338Z,1.4
2016-12-09T00:46:12.884Z,1.4
2016-12-09T00:46:33.420Z,1.4
2016-12-09T00:46:53.947Z,1.4
2016-12-09T00:47:14.477Z,1.4
2016-12-09T00:47:35.033Z,1.4
2016-12-09T00:47:55.558Z,1.5
2016-12-09T00:48:16.101Z,1.4
2016-12-09T00:48:36.658Z,1.4
2016-12-09T00:48:57.208Z,1.3
2016-12-09T00:49:17.742Z,1.4
2016-12-09T00:49:38.289Z,1.4
2016-12-09T00:49:58.849Z,1.4
2016-12-09T00:50:19.381Z,1.5
2016-12-09T00:50:39.923Z,1.5
2016-12-09T00:51:00.450Z,1.5
2016-12-09T00:51:20.996Z,1.5
2016-12-09T00:51:41.547Z,1.4
2016-12-09T00:52:02.110Z,1.5
2016-12-09T00:52:22.664Z,1.5
2016-12-09T00:52:43.203Z,1.5
2016-12-09T00:53:03.718Z,1.5
2016-12-09T00:53:24.286Z,1.5
2016-12-09T00:53:44.815Z,1.5
2016-12-09T00:54:05.350Z,1.4
2016-12-09T00:54:25.869Z,1.5
2016-12-09T00:54:46.397Z,1.5
2016-12-09T00:55:06.970Z,1.4
2016-12-09T00:55:27.489Z,1.5
2016-12-09T00:55:48.048Z,1.5
2016-12-09T00:56:08.585Z,1.5
2016-12-09T00:56:29.157Z,1.5
2016-12-09T00:56:49.684Z,1.5
2016-12-09T00:57:10.198Z,1.6
2016-12-09T00:57:30.728Z,1.7
2016-12-09T00:57:51.288Z,1.7
2016-12-09T00:58:11.823Z,1.9
2016-12-09T00:58:32.352Z,2
2016-12-09T00:58:52.908Z,2.1
2016-12-09T00:59:13.432Z,2.1
2016-12-09T00:59:33.958Z,2.1
2016-12-09T00:59:54.538Z,2.1
2016-12-09T01:00:15.065Z,2.2
2016-12-09T01:00:35.587Z,2.2
2016-12-09T01:00:56.132Z,2.2
2016-12-09T01:01:16.695Z,2.1
2016-12-09T01:01:37.249Z,2.1
2016-12-09T01:01:57.794Z,2.1
2016-12-09T01:02:18.340Z,2.1
2016-12-09T01:02:38.872Z,2.1
2016-12-09T01:02:59.411Z,2
2016-12-09T01:03:19.940Z,2
2016-12-09T01:03:40.493Z,2.1
2016-12-09T01:04:01.023Z,1.9
2016-12-09T01:04:21.564Z,2
2016-12-09T01:04:42.111Z,2
2016-12-09T01:05:02.634Z,2
2016-12-09T01:05:23.191Z,1.9
2016-12-09T01:05:43.778Z,1.8
2016-12-09T01:06:04.355Z,1.8
2016-12-09T01:06:24.926Z,1.8
2016-12-09T01:06:45.499Z,1.8
2016-12-09T01:07:06.035Z,1.8
2016-12-09T01:07:26.599Z,1.7
2016-12-09T01:07:47.174Z,1.8
2016-12-09T01:08:07.705Z,1.7
2016-12-09T01:08:28.268Z,1.7
2016-12-09T01:08:48.798Z,1.7
2016-12-09T01:09:09.319Z,1.7
2016-12-09T01:09:29.873Z,1.7
2016-12-09T01:09:50.441Z,1.8
2016-12-09T01:10:11.724Z,1.7
2016-12-09T01:10:32.284Z,1.7
2016-12-09T01:10:52.834Z,1.8
2016-12-09T01:11:13.387Z,1.8
2016-12-09T01:11:33.916Z,1.8
2016-12-09T01:11:54.472Z,1.7
2016-12-09T01:12:15.010Z,1.8
2016-12-09T01:12:35.548Z,1.7
2016-12-09T01:12:56.082Z,1.8
2016-12-09T01:13:16.621Z,1.8
2016-12-09T01:13:37.162Z,1.8
2016-12-09T01:13:57.715Z,1.7
2016-12-09T01:14:18.255Z,1.7
2016-12-09T01:14:38.793Z,1.7
2016-12-09T01:14:59.322Z,1.7
2016-12-09T01:15:19.848Z,1.7
2016-12-09T01:15:40.374Z,1.7
2016-12-09T01:16:00.925Z,1.8
2016-12-09T01:16:21.441Z,1.7
2016-12-09T01:16:42.017Z,1.7
2016-12-09T01:17:02.542Z,1.6
2016-12-09T01:17:23.084Z,1.6
2016-12-09T01:17:43.639Z,1.6
2016-12-09T01:18:04.186Z,1.5
2016-12-09T01:18:24.719Z,1.5
2016-12-09T01:18:45.251Z,1.4
2016-12-09T01:19:05.780Z,1.3
2016-12-09T01:19:26.327Z,1.2
2016-12-09T01:19:46.896Z,1.1
2016-12-09T01:20:07.437Z,1.1
2016-12-09T01:20:27.970Z,1.2
2016-12-09T01:20:48.517Z,1.1
2016-12-09T01:21:09.062Z,1
2016-12-09T01:21:29.599Z,1.1
2016-12-09T01:21:50.187Z,1.1
2016-12-09T01:22:10.710Z,1
2016-12-09T01:22:31.255Z,1.2
2016-12-09T01:22:51.811Z,1.1
2016-12-09T01:23:12.340Z,1
2016-12-09T01:23:32.943Z,1
2016-12-09T01:23:53.486Z,1.1
2016-12-09T01:24:14.036Z,1
2016-12-09T01:24:34.580Z,1
2016-12-09T01:24:55.108Z,0.9
2016-12-09T01:25:15.663Z,0.9
2016-12-09T01:25:36.224Z,0.9
2016-12-09T01:25:56.778Z,1
2016-12-09T01:26:17.344Z,1
2016-12-09T01:26:37.862Z,0.9
2016-12-09T01:26:58.408Z,1
2016-12-09T01:27:18.947Z,0.9
2016-12-09T01:27:39.487Z,0.9
2016-12-09T01:28:00.017Z,0.9
2016-12-09T01:28:20.601Z,0.9
2016-12-09T01:28:41.140Z,0.9
2016-12-09T01:29:01.704Z,0.9
2016-12-09T01:29:22.251Z,1
2016-12-09T01:29:42.791Z,0.8
2016-12-09T01:30:03.331Z,0.9
2016-12-09T01:30:23.873Z,0.8
2016-12-09T01:30:44.444Z,0.8
2016-12-09T01:31:04.993Z,0.8
2016-12-09T01:31:25.542Z,0.8
2016-12-09T01:31:46.086Z,0.9
2016-12-09T01:32:06.658Z,1
2016-12-09T01:32:27.214Z,0.9
2016-12-09T01:32:47.771Z,0.9
2016-12-09T01:33:08.322Z,0.9
2016-12-09T01:33:28.876Z,0.9
2016-12-09T01:33:49.420Z,0.9
2016-12-09T01:34:09.992Z,0.9
2016-12-09T01:34:30.531Z,0.9
2016-12-09T01:34:51.089Z,1
2016-12-09T01:35:11.628Z,0.9
2016-12-09T01:35:32.160Z,1
2016-12-09T01:35:52.720Z,0.9
2016-12-09T01:36:13.274Z,0.9
2016-12-09T01:36:33.828Z,1
2016-12-09T01:36:54.398Z,1
2016-12-09T01:37:14.994Z,1.1
2016-12-09T01:37:35.535Z,1.1
2016-12-09T01:37:56.112Z,1.2
2016-12-09T01:38:16.669Z,1.2
2016-12-09T01:38:37.204Z,1.2
2016-12-09T01:38:57.741Z,1.2
2016-12-09T01:39:18.273Z,1.2
2016-12-09T01:39:38.812Z,1.1
2016-12-09T01:39:59.376Z,1.2
2016-12-09T01:40:19.946Z,1.2
2016-12-09T01:40:40.499Z,1.3
2016-12-09T01:41:01.061Z,1.1
2016-12-09T01:41:21.583Z,1.1
2016-12-09T01:41:42.137Z,1.1
2016-12-09T01:42:02.684Z,1.1
2016-12-09T01:42:23.240Z,1.1
2016-12-09T01:42:43.795Z,1.1
2016-12-09T01:43:04.332Z,1.1
2016-12-09T01:43:24.862Z,1.1
2016-12-09T01:43:45.407Z,1.1
2016-12-09T01:44:05.955Z,1.1
2016-12-09T01:44:26.524Z,1.1
2016-12-09T01:44:47.093Z,1.1
2016-12-09T01:45:07.644Z,1.1
2016-12-09T01:45:28.183Z,1.2
2016-12-09T01:45:48.729Z,1.1
2016-12-09T01:46:09.301Z,1.1
2016-12-09T01:46:29.836Z,1.1
2016-12-09T01:46:50.362Z,1.1
2016-12-09T01:47:10.928Z,1.1
2016-12-09T01:47:31.465Z,1.2
2016-12-09T01:47:52.006Z,1.1
2016-12-09T01:48:12.546Z,1.2
2016-12-09T01:48:33.095Z,1.2
2016-12-09T01:48:53.696Z,1.2
2016-12-09T01:49:14.233Z,1.3
2016-12-09T01:49:34.771Z,1.3
2016-12-09T01:49:55.315Z,1.2
2016-12-09T01:50:15.860Z,1.3
2016-12-09T01:50:36.391Z,1.3
2016-12-09T01:50:56.936Z,1.3
2016-12-09T01:51:17.482Z,1.4
2016-12-09T01:51:38.006Z,1.5
2016-12-09T01:51:58.680Z,1.5
2016-12-09T01:52:19.209Z,1.5
2016-12-09T01:52:39.794Z,1.4
2016-12-09T01:53:00.356Z,1.4
2016-12-09T01:53:20.892Z,1.5
2016-12-09T01:53:41.448Z,1.5
2016-12-09T01:54:02.009Z,1.4
2016-12-09T01:54:22.548Z,1.5
2016-12-09T01:54:43.073Z,1.5
2016-12-09T01:55:03.620Z,1.5
2016-12-09T01:55:24.151Z,1.5
2016-12-09T01:55:44.710Z,1.6
2016-12-09T01:56:05.241Z,1.7
2016-12-09T01:56:25.778Z,1.7
2016-12-09T01:56:46.322Z,1.8
2016-12-09T01:57:06.855Z,1.8
2016-12-09T01:57:27.409Z,1.6
2016-12-09T01:57:47.963Z,1.7
2016-12-09T01:58:08.494Z,1.8
2016-12-09T01:58:29.039Z,1.6
2016-12-09T01:58:49.567Z,1.8
2016-12-09T01:59:10.106Z,1.7
2016-12-09T01:59:30.628Z,1.7
2016-12-09T01:59:51.173Z,1.7
2016-12-09T02:00:11.705Z,1.7
2016-12-09T02:00:32.240Z,1.6
2016-12-09T02:00:52.790Z,1.8
2016-12-09T02:01:13.312Z,1.7
2016-12-09T02:01:33.865Z,1.6
2016-12-09T02:01:54.398Z,1.7
2016-12-09T02:02:14.942Z,1.7
2016-12-09T02:02:35.480Z,1.8
2016-12-09T02:02:56.024Z,1.7
2016-12-09T02:03:16.560Z,1.7
2016-12-09T02:03:37.079Z,1.7
2016-12-09T02:03:57.655Z,1.8
2016-12-09T02:04:18.180Z,1.8
2016-12-09T02:04:38.697Z,1.8
2016-12-09T02:04:59.226Z,1.7
2016-12-09T02:05:19.757Z,1.7
2016-12-09T02:05:40.280Z,1.7
2016-12-09T02:06:00.822Z,1.8
2016-12-09T02:06:21.354Z,1.8
2016-12-09T02:06:41.931Z,1.9
2016-12-09T02:07:02.469Z,2
2016-12-09T02:07:23.003Z,2.1
2016-12-09T02:07:43.548Z,2
2016-12-09T02:08:04.100Z,2.1
2016-12-09T02:08:24.666Z,2.1
2016-12-09T02:08:45.190Z,2.1
2016-12-09T02:09:05.728Z,2.1
2016-12-09T02:09:26.268Z,2.2
2016-12-09T02:09:46.797Z,2.2
2016-12-09T02:10:07.323Z,2.1
2016-12-09T02:10:27.865Z,2.2
2016-12-09T02:10:48.432Z,2.1
2016-12-09T02:11:08.951Z,2.1
2016-12-09T02:11:29.486Z,2
2016-12-09T02:11:50.015Z,2
2016-12-09T02:12:10.578Z,2.1
2016-12-09T02:12:31.123Z,2.2
2016-12-09T02:12:51.675Z,2.2
2016-12-09T02:13:12.206Z,2.2
2016-12-09T02:13:32.748Z,2.3
2016-12-09T02:13:53.281Z,2.3
2016-12-09T02:14:13.811Z,2.5
2016-12-09T02:14:34.354Z,2.5
2016-12-09T02:14:54.922Z,2.5
2016-12-09T02:15:15.469Z,2.6
2016-12-09T02:15:35.988Z,2.6
2016-12-09T02:15:56.572Z,2.6
2016-12-09T02:16:17.137Z,2.7
2016-12-09T02:16:37.673Z,2.7
2016-12-09T02:16:58.195Z,2.7
2016-12-09T02:17:18.751Z,2.7
2016-12-09T02:17:39.281Z,2.7
2016-12-09T02:17:59.826Z,2.8
2016-12-09T02:18:20.364Z,2.8
2016-12-09T02:18:40.894Z,2.7
2016-12-09T02:19:01.422Z,2.8
2016-12-09T02:19:21.964Z,2.7
2016-12-09T02:19:42.497Z,2.8
2016-12-09T02:20:03.022Z,2.8
2016-12-09T02:20:23.562Z,2.8
2016-12-09T02:20:44.093Z,2.8
2016-12-09T02:21:04.658Z,2.8
2016-12-09T02:21:25.176Z,2.9
2016-12-09T02:21:45.710Z,3
2016-12-09T02:22:06.259Z,2.8
2016-12-09T02:22:26.824Z,3
2016-12-09T02:22:47.381Z,2.9
2016-12-09T02:23:07.926Z,3
2016-12-09T02:23:28.470Z,3
2016-12-09T02:23:48.989Z,2.9
2016-12-09T02:24:09.519Z,2.9
2016-12-09T02:24:30.105Z,2.8
2016-12-09T02:24:50.649Z,2.9
2016-12-09T02:25:11.191Z,3
2016-12-09T02:25:31.708Z,2.9
2016-12-09T02:25:52.231Z,2.9
2016-12-09T02:26:12.817Z,3
2016-12-09T02:26:33.353Z,3
2016-12-09T02:26:53.886Z,3
2016-12-09T02:27:14.402Z,3
2016-12-09T02:27:37.743Z,3
2016-12-09T02:27:58.252Z,3
2016-12-09T02:28:18.790Z,3
2016-12-09T02:28:39.330Z,3
2016-12-09T02:28:59.843Z,3
2016-12-09T02:29:20.380Z,3
2016-12-09T02:29:40.931Z,2.9
2016-12-09T02:30:01.460Z,2.9
2016-12-09T02:30:22.008Z,2.8
2016-12-09T02:30:42.528Z,2.8
2016-12-09T02:31:03.066Z,2.8
2016-12-09T02:31:23.592Z,2.8
2016-12-09T02:31:44.157Z,2.7
2016-12-09T02:32:04.688Z,2.6
2016-12-09T02:32:25.241Z,2.7
2016-12-09T02:32:45.761Z,2.6
2016-12-09T02:33:06.322Z,2.6
2016-12-09T02:33:26.852Z,2.6
2016-12-09T02:33:47.398Z,2.6
2016-12-09T02:34:07.920Z,2.5
2016-12-09T02:34:28.456Z,2.4
2016-12-09T02:34:49.006Z,2.3
2016-12-09T02:35:09.532Z,2.3
2016-12-09T02:35:30.089Z,2.2
2016-12-09T02:35:50.602Z,2.2
2016-12-09T02:36:11.136Z,2.2
2016-12-09T02:36:31.690Z,2.1
2016-12-09T02:36:52.229Z,2
2016-12-09T02:37:12.745Z,2
2016-12-09T02:37:33.301Z,2
2016-12-09T02:37:53.838Z,1.9
2016-12-09T02:38:14.375Z,2
2016-12-09T02:38:34.889Z,2
2016-12-09T02:38:55.404Z,1.9
2016-12-09T02:39:15.940Z,1.9
2016-12-09T02:39:36.459Z,1.9
2016-12-09T02:39:56.988Z,1.9
2016-12-09T02:40:17.524Z,1.9
2016-12-09T02:40:38.054Z,1.7
2016-12-09T02:40:58.581Z,1.8
2016-12-09T02:41:19.100Z,1.9
2016-12-09T02:41:39.632Z,1.7
2016-12-09T02:42:00.198Z,1.7
2016-12-09T02:42:20.722Z,1.7
2016-12-09T02:42:41.251Z,1.7
2016-12-09T02:43:01.769Z,1.8
2016-12-09T02:43:22.323Z,1.7
2016-12-09T02:43:42.851Z,1.7
2016-12-09T02:44:03.391Z,1.8
2016-12-09T02:44:23.911Z,1.8
2016-12-09T02:44:44.476Z,1.8
2016-12-09T02:45:05.007Z,1.8
2016-12-09T02:45:25.532Z,1.7
2016-12-09T02:45:46.056Z,1.8
2016-12-09T02:46:06.627Z,1.8
2016-12-09T02:46:27.168Z,1.8
2016-12-09T02:46:47.711Z,1.8
2016-12-09T02:47:08.261Z,1.8
2016-12-09T02:47:28.801Z,1.8
2016-12-09T02:47:49.332Z,1.7
2016-12-09T02:48:09.890Z,1.8
2016-12-09T02:48:30.432Z,1.8
2016-12-09T02:48:51.001Z,1.8
2016-12-09T02:49:11.534Z,1.7
2016-12-09T02:49:32.123Z,1.7
2016-12-09T02:49:52.661Z,1.7
2016-12-09T02:50:13.183Z,1.7
2016-12-09T02:50:33.715Z,1.8
2016-12-09T02:50:54.259Z,1.8
2016-12-09T02:51:14.789Z,1.7
2016-12-09T02:51:35.339Z,1.8
2016-12-09T02:51:55.878Z,1.8
2016-12-09T02:52:16.413Z,1.8
2016-12-09T02:52:36.935Z,1.7
2016-12-09T02:52:57.465Z,1.7
2016-12-09T02:53:17.994Z,1.7
2016-12-09T02:53:38.506Z,1.7
2016-12-09T02:53:59.073Z,1.6
2016-12-09T02:54:19.594Z,1.7
2016-12-09T02:54:40.132Z,1.7
2016-12-09T02:55:00.687Z,1.7
2016-12-09T02:55:21.216Z,1.6
2016-12-09T02:55:41.759Z,1.6
2016-12-09T02:56:02.276Z,1.5
2016-12-09T02:56:22.808Z,1.6
2016-12-09T02:56:43.329Z,1.6
2016-12-09T02:57:03.870Z,1.6
2016-12-09T02:57:24.397Z,1.7
2016-12-09T02:57:44.939Z,1.7
2016-12-09T02:58:05.477Z,1.7
2016-12-09T02:58:26.005Z,1.8
2016-12-09T02:58:46.546Z,1.7
2016-12-09T02:59:07.076Z,1.7
2016-12-09T02:59:27.591Z,1.9
2016-12-09T02:59:48.131Z,1.9
2016-12-09T03:00:08.653Z,1.9
2016-12-09T03:00:29.390Z,2
2016-12-09T03:00:49.915Z,1.9
2016-12-09T03:01:10.445Z,2
2016-12-09T03:01:30.977Z,2.2
2016-12-09T03:01:51.515Z,2.2
2016-12-09T03:02:12.060Z,2.2
2016-12-09T03:02:32.616Z,2.2
2016-12-09T03:02:53.138Z,2.2
2016-12-09T03:03:13.673Z,2.2
2016-12-09T03:03:34.225Z,2.2
2016-12-09T03:03:54.746Z,2.3
2016-12-09T03:04:15.304Z,2.3
2016-12-09T03:04:35.832Z,2.4
2016-12-09T03:04:56.439Z,2.4
2016-12-09T03:05:16.976Z,2.5
2016-12-09T03:05:37.528Z,2.4
2016-12-09T03:05:58.077Z,2.5
2016-12-09T03:06:18.602Z,2.5
2016-12-09T03:06:39.134Z,2.5
2016-12-09T03:06:59.694Z,2.5
2016-12-09T03:07:20.267Z,2.5
2016-12-09T03:07:40.809Z,2.5
2016-12-09T03:08:01.347Z,2.6
2016-12-09T03:08:21.895Z,2.6
2016-12-09T03:08:42.439Z,2.6
2016-12-09T03:09:02.973Z,2.6
2016-12-09T03:09:23.525Z,2.6
2016-12-09T03:09:44.075Z,2.6
2016-12-09T03:10:04.614Z,2.6
2016-12-09T03:10:25.150Z,2.6
2016-12-09T03:10:45.712Z,2.6
2016-12-09T03:11:06.287Z,2.6
2016-12-09T03:11:26.833Z,2.6
2016-12-09T03:11:47.384Z,2.6
2016-12-09T03:12:07.920Z,2.5
2016-12-09T03:12:28.454Z,2.5
2016-12-09T03:12:49.040Z,2.4
2016-12-09T03:13:09.592Z,2.5
2016-12-09T03:13:30.158Z,2.5
2016-12-09T03:13:50.711Z,2.4
2016-12-09T03:14:11.258Z,2.4
2016-12-09T03:14:31.789Z,2.4
2016-12-09T03:14:52.366Z,2.4
2016-12-09T03:15:12.925Z,2.3
2016-12-09T03:15:33.480Z,2.3
2016-12-09T03:15:54.008Z,2.3
2016-12-09T03:16:14.578Z,2.3
2016-12-09T03:16:35.114Z,2.2
2016-12-09T03:16:55.655Z,2.3
2016-12-09T03:17:16.185Z,2.3
2016-12-09T03:17:36.743Z,2.2
2016-12-09T03:17:57.267Z,2.2
2016-12-09T03:18:17.798Z,2.2
2016-12-09T03:18:38.346Z,2.2
2016-12-09T03:18:58.897Z,2.2
2016-12-09T03:19:19.455Z,2.2
2016-12-09T03:19:40.004Z,2.1
2016-12-09T03:20:00.557Z,2.2
2016-12-09T03:20:21.094Z,2.1
2016-12-09T03:20:41.661Z,2.1
2016-12-09T03:21:02.265Z,2.1
2016-12-09T03:21:22.793Z,2
2016-12-09T03:21:43.368Z,2.1
2016-12-09T03:22:03.906Z,2
2016-12-09T03:22:24.450Z,2.1
2016-12-09T03:22:45.052Z,2.1
2016-12-09T03:23:05.574Z,2.1
2016-12-09T03:23:26.116Z,2.1
2016-12-09T03:23:46.647Z,2.1
2016-12-09T03:24:07.179Z,2.1
2016-12-09T03:24:27.771Z,2.2
2016-12-09T03:24:48.308Z,2.2
2016-12-09T03:25:08.871Z,2.1
2016-12-09T03:25:29.416Z,2.2
2016-12-09T03:25:49.943Z,2.2
2016-12-09T03:26:10.549Z,2.1
2016-12-09T03:26:31.091Z,2.2
2016-12-09T03:26:51.642Z,2.3
2016-12-09T03:27:12.201Z,2.4
2016-12-09T03:27:32.712Z,2.5
2016-12-09T03:27:53.246Z,2.6
2016-12-09T03:28:13.780Z,2.6
2016-12-09T03:28:34.318Z,2.6
2016-12-09T03:28:54.852Z,2.7
2016-12-09T03:29:15.397Z,2.7
2016-12-09T03:29:35.915Z,2.6
2016-12-09T03:29:56.446Z,2.7
2016-12-09T03:30:16.997Z,2.8
2016-12-09T03:30:37.529Z,2.9
2016-12-09T03:30:58.074Z,2.8
2016-12-09T03:31:18.604Z,2.9
2016-12-09T03:31:39.131Z,2.9
2016-12-09T03:31:59.680Z,3
2016-12-09T03:32:20.229Z,3
2016-12-09T03:32:40.758Z,3.1
2016-12-09T03:33:01.320Z,3.1
2016-12-09T03:33:21.855Z,3.2
2016-12-09T03:33:42.382Z,3.2
2016-12-09T03:34:02.934Z,3.4
2016-12-09T03:34:23.494Z,3.4
2016-12-09T03:34:44.029Z,3.3
2016-12-09T03:35:04.557Z,3.3
2016-12-09T03:35:25.130Z,3.3
2016-12-09T03:35:45.667Z,3.3
2016-12-09T03:36:06.208Z,3.3
2016-12-09T03:36:26.753Z,3.3
2016-12-09T03:36:47.314Z,3.3
2016-12-09T03:37:07.831Z,3.4
2016-12-09T03:37:28.368Z,3.4
2016-12-09T03:37:48.903Z,3.4
2016-12-09T03:38:09.424Z,3.3
2016-12-09T03:38:29.964Z,3.3
2016-12-09T03:38:50.537Z,3.3
2016-12-09T03:39:11.084Z,3.4
2016-12-09T03:39:31.627Z,3.3
2016-12-09T03:39:52.189Z,3.3
2016-12-09T03:40:12.756Z,3.4
2016-12-09T03:40:33.298Z,3.4
2016-12-09T03:40:53.832Z,3.5
2016-12-09T03:41:14.356Z,3.5
2016-12-09T03:41:34.897Z,3.5
2016-12-09T03:41:55.435Z,3.5
2016-12-09T03:42:15.981Z,3.8
2016-12-09T03:42:36.511Z,3.6
2016-12-09T03:42:57.080Z,3.8
2016-12-09T03:43:17.608Z,3.7
2016-12-09T03:43:38.163Z,3.7
2016-12-09T03:43:58.698Z,3.8
2016-12-09T03:44:19.287Z,3.7
2016-12-09T03:44:39.820Z,3.8
2016-12-09T03:45:00.350Z,3.9
2016-12-09T03:45:20.868Z,3.9
2016-12-09T03:45:41.391Z,3.8
2016-12-09T03:46:01.974Z,3.9
2016-12-09T03:46:22.504Z,3.9
2016-12-09T03:46:43.037Z,3.9
2016-12-09T03:47:03.606Z,3.9
2016-12-09T03:47:24.148Z,3.9
2016-12-09T03:47:44.681Z,3.9
2016-12-09T03:48:05.236Z,3.8
2016-12-09T03:48:25.782Z,3.9
2016-12-09T03:48:46.313Z,3.9
2016-12-09T03:49:06.851Z,3.9
2016-12-09T03:49:27.395Z,3.9
2016-12-09T03:49:47.942Z,3.9
2016-12-09T03:50:08.463Z,3.8
2016-12-09T03:50:28.993Z,3.8
2016-12-09T03:50:49.531Z,3.8
2016-12-09T03:51:10.062Z,3.8
2016-12-09T03:51:30.595Z,3.8
2016-12-09T03:51:51.140Z,3.9
2016-12-09T03:52:11.669Z,3.7
2016-12-09T03:52:32.213Z,3.8
2016-12-09T03:52:52.770Z,3.8
2016-12-09T03:53:13.313Z,3.7
2016-12-09T03:53:33.898Z,3.7
2016-12-09T03:53:54.458Z,3.7
2016-12-09T03:54:14.976Z,3.7
2016-12-09T03:54:35.498Z,3.7
2016-12-09T03:54:56.041Z,3.8
2016-12-09T03:55:16.559Z,3.8
2016-12-09T03:55:37.082Z,3.8
2016-12-09T03:55:57.618Z,3.8
2016-12-09T03:56:18.140Z,3.7
2016-12-09T03:56:38.703Z,3.7
2016-12-09T03:56:59.310Z,3.8
2016-12-09T03:57:19.872Z,3.8
2016-12-09T03:57:40.414Z,3.7
2016-12-09T03:58:00.966Z,3.7
2016-12-09T03:58:21.504Z,3.7
2016-12-09T03:58:42.028Z,3.7
2016-12-09T03:59:02.589Z,3.7
2016-12-09T03:59:23.125Z,3.7
2016-12-09T03:59:43.656Z,3.6
2016-12-09T04:00:04.187Z,3.6
2016-12-09T04:00:24.720Z,3.6
2016-12-09T04:00:45.331Z,3.7
2016-12-09T04:01:05.872Z,3.7
2016-12-09T04:01:26.418Z,3.7
2016-12-09T04:01:46.959Z,3.5
2016-12-09T04:02:07.488Z,3.6
2016-12-09T04:02:28.055Z,3.7
2016-12-09T04:02:48.587Z,3.5
2016-12-09T04:03:09.115Z,3.7
2016-12-09T04:03:30.000Z,3.7
2016-12-09T04:03:50.628Z,3.6
2016-12-09T04:04:11.278Z,3.6
2016-12-09T04:04:31.889Z,3.6
2016-12-09T04:04:52.443Z,3.5
2016-12-09T04:05:12.978Z,3.6
2016-12-09T04:05:33.540Z,3.6
2016-12-09T04:05:54.148Z,3.6
2016-12-09T04:06:14.755Z,3.6
2016-12-09T04:06:35.299Z,3.6
2016-12-09T04:06:55.875Z,3.6
2016-12-09T04:07:16.392Z,3.4
2016-12-09T04:07:36.932Z,3.6
2016-12-09T04:07:57.465Z,3.5
2016-12-09T04:08:18.006Z,3.5
2016-12-09T04:08:38.546Z,3.5
2016-12-09T04:08:59.105Z,3.5
2016-12-09T04:09:19.642Z,3.5
2016-12-09T04:09:40.191Z,3.5
2016-12-09T04:10:00.772Z,3.5
2016-12-09T04:10:21.341Z,3.5
2016-12-09T04:10:43.121Z,3.5
2016-12-09T04:11:03.660Z,3.4
2016-12-09T04:11:24.214Z,3.4
2016-12-09T04:11:44.782Z,3.5
2016-12-09T04:12:05.310Z,3.4
2016-12-09T04:12:25.861Z,3.4
2016-12-09T04:12:46.437Z,3.4
2016-12-09T04:13:06.959Z,3.5
2016-12-09T04:13:27.488Z,3.5
2016-12-09T04:13:48.010Z,3.4
2016-12-09T04:14:08.564Z,3.4
2016-12-09T04:14:29.104Z,3.4
2016-12-09T04:14:49.659Z,3.3
2016-12-09T04:15:10.204Z,3.4
2016-12-09T04:15:30.740Z,3.4
2016-12-09T04:15:51.282Z,3.3
2016-12-09T04:16:11.810Z,3.3
2016-12-09T04:16:32.350Z,3.3
2016-12-09T04:16:52.889Z,3.2
2016-12-09T04:17:13.422Z,3.2
2016-12-09T04:17:33.957Z,3.1
2016-12-09T04:17:54.520Z,3.1
2016-12-09T04:18:15.046Z,3.1
2016-12-09T04:18:35.571Z,3
2016-12-09T04:18:56.324Z,3
2016-12-09T04:19:16.858Z,3
2016-12-09T04:19:37.409Z,2.9
2016-12-09T04:19:57.968Z,2.8
2016-12-09T04:20:18.489Z,2.8
2016-12-09T04:20:39.041Z,2.8
2016-12-09T04:20:59.619Z,2.8
2016-12-09T04:21:20.145Z,2.8
2016-12-09T04:21:40.673Z,2.8
2016-12-09T04:22:01.236Z,2.8
2016-12-09T04:22:21.767Z,2.8
2016-12-09T04:22:42.287Z,2.8
2016-12-09T04:23:02.846Z,2.8
2016-12-09T04:23:23.372Z,2.8
2016-12-09T04:23:43.914Z,2.8
2016-12-09T04:24:04.441Z,2.8
2016-12-09T04:24:24.978Z,2.7
2016-12-09T04:24:45.507Z,2.8
2016-12-09T04:25:06.069Z,2.8
2016-12-09T04:25:26.598Z,2.7
2016-12-09T04:25:47.116Z,2.8
2016-12-09T04:26:07.641Z,2.6
2016-12-09T04:26:28.188Z,2.8
2016-12-09T04:26:48.704Z,2.7
2016-12-09T04:27:09.239Z,2.7
2016-12-09T04:27:29.798Z,2.7
2016-12-09T04:27:50.353Z,2.7
2016-12-09T04:28:10.887Z,2.6
2016-12-09T04:28:31.429Z,2.7
2016-12-09T04:28:51.969Z,2.8
2016-12-09T04:29:12.750Z,2.7
2016-12-09T04:29:34.874Z,2.7
2016-12-09T04:29:55.421Z,2.8
2016-12-09T04:30:15.967Z,2.7
2016-12-09T04:30:36.513Z,2.8
2016-12-09T04:30:57.053Z,2.8
2016-12-09T04:31:17.631Z,2.8
2016-12-09T04:31:38.162Z,2.8
2016-12-09T04:31:58.745Z,2.8
2016-12-09T04:32:19.349Z,2.7
2016-12-09T04:32:39.879Z,2.7
2016-12-09T04:33:00.436Z,2.8
2016-12-09T04:33:20.976Z,2.8
2016-12-09T04:33:41.541Z,2.8
2016-12-09T04:34:02.059Z,2.7
2016-12-09T04:34:22.589Z,2.7
2016-12-09T04:34:43.125Z,2.7
2016-12-09T04:35:03.656Z,2.7
2016-12-09T04:35:24.211Z,2.8
2016-12-09T04:35:44.744Z,2.8
2016-12-09T04:36:05.288Z,2.8
2016-12-09T04:36:25.885Z,2.8
2016-12-09T04:36:46.467Z,2.8
2016-12-09T04:37:07.080Z,2.8
2016-12-09T04:37:27.626Z,2.8
2016-12-09T04:37:48.175Z,2.9
2016-12-09T04:38:08.735Z,2.9
2016-12-09T04:38:29.294Z,2.8
2016-12-09T04:38:49.854Z,2.8
2016-12-09T04:39:10.420Z,2.8
2016-12-09T04:39:30.948Z,3
2016-12-09T04:39:51.486Z,3
2016-12-09T04:40:12.029Z,3
2016-12-09T04:40:32.560Z,3.1
2016-12-09T04:40:53.128Z,3.2
2016-12-09T04:41:13.664Z,3.2
2016-12-09T04:41:34.201Z,3.2
2016-12-09T04:41:54.771Z,3.3
2016-12-09T04:42:15.297Z,3.4
2016-12-09T04:42:35.882Z,3.4
2016-12-09T04:42:56.417Z,3.3
2016-12-09T04:43:16.966Z,3.3
2016-12-09T04:43:37.539Z,3.4
2016-12-09T04:43:58.069Z,3.3
2016-12-09T04:44:18.601Z,3.4
2016-12-09T04:44:39.141Z,3.4